createdAt,value
2018-12-31T00:00:42.761Z,1.40
2018-12-31T00:01:42.763Z,1.50
2018-12-31T00:02:42.767Z,1.50
2018-12-31T00:03:42.778Z,1.50
2018-12-31T00:04:42.776Z,1.40
2018-12-31T00:05:42.773Z,1.30
2018-12-31T00:06:42.782Z,1.40
2018-12-31T00:07:42.780Z,1.20
2018-12-31T00:08:42.781Z,1.40
2018-12-31T00:09:42.785Z,1.50
2018-12-31T00:10:42.785Z,1.40
2018-12-31T00:11:42.787Z,1.40
2018-12-31T00:12:42.792Z,1.40
2018-12-31T00:13:42.796Z,1.50
2018-12-31T00:14:42.795Z,1.40
2018-12-31T00:15:42.805Z,1.40
2018-12-31T00:16:42.808Z,1.40
2018-12-31T00:17:42.807Z,1.30
2018-12-31T00:18:42.806Z,1.50
2018-12-31T00:19:42.809Z,1.40
2018-12-31T00:20:42.813Z,1.30
2018-12-31T00:21:42.812Z,1.20
2018-12-31T00:22:42.814Z,1.40
2018-12-31T00:23:42.818Z,1.30
2018-12-31T00:24:42.820Z,1.30
2018-12-31T00:25:42.821Z,1.30
2018-12-31T00:26:42.825Z,1.30
2018-12-31T00:27:42.826Z,1.40
2018-12-31T00:28:42.829Z,1.40
2018-12-31T00:29:42.832Z,1.30
2018-12-31T00:30:42.841Z,1.40
2018-12-31T00:31:42.886Z,1.20
2018-12-31T00:32:42.839Z,1.30
2018-12-31T00:33:42.841Z,1.30
2018-12-31T00:34:42.844Z,1.30
2018-12-31T00:35:42.847Z,1.40
2018-12-31T00:36:42.844Z,1.20
2018-12-31T00:37:42.850Z,1.20
2018-12-31T00:38:42.853Z,1.20
2018-12-31T00:39:42.856Z,1.20
2018-12-31T00:40:42.858Z,1.20
2018-12-31T00:41:42.862Z,1.30
2018-12-31T00:42:42.862Z,1.40
2018-12-31T00:43:42.866Z,1.20
2018-12-31T00:44:42.869Z,1.20
2018-12-31T00:45:42.871Z,1.20
2018-12-31T00:46:42.872Z,1.30
2018-12-31T00:47:42.878Z,1.30
2018-12-31T00:48:42.877Z,1.20
2018-12-31T00:49:42.879Z,1.30
2018-12-31T00:50:42.887Z,1.30
2018-12-31T00:51:42.886Z,1.30
2018-12-31T00:52:42.887Z,1.50
2018-12-31T00:53:42.888Z,1.30
2018-12-31T00:54:42.892Z,1.10
2018-12-31T00:55:42.894Z,1.30
2018-12-31T00:56:42.906Z,1.40
2018-12-31T00:57:42.898Z,1.10
2018-12-31T00:58:42.901Z,1.20
2018-12-31T00:59:42.904Z,1.10
2018-12-31T01:00:42.957Z,1.20
2018-12-31T01:01:42.908Z,1.20
2018-12-31T01:02:42.911Z,1.30
2018-12-31T01:03:42.913Z,1.20
2018-12-31T01:04:42.916Z,1.20
2018-12-31T01:05:42.924Z,1.20
2018-12-31T01:06:42.921Z,1.50
2018-12-31T01:07:42.925Z,1.20
2018-12-31T01:08:42.926Z,1.40
2018-12-31T01:09:42.927Z,1.00
2018-12-31T01:10:42.930Z,1.30
2018-12-31T01:11:42.930Z,1.20
2018-12-31T01:12:42.937Z,1.10
2018-12-31T01:13:42.937Z,1.20
2018-12-31T01:14:42.949Z,1.20
2018-12-31T01:15:42.942Z,1.20
2018-12-31T01:16:42.945Z,1.40
2018-12-31T01:17:42.947Z,1.20
2018-12-31T01:18:42.950Z,0.90
2018-12-31T01:19:42.952Z,1.10
2018-12-31T01:20:42.954Z,1.10
2018-12-31T01:21:42.957Z,1.10
2018-12-31T01:22:42.959Z,1.20
2018-12-31T01:23:42.964Z,1.00
2018-12-31T01:24:42.965Z,1.10
2018-12-31T01:25:43.292Z,1.20
2018-12-31T01:26:42.970Z,1.10
2018-12-31T01:27:42.972Z,1.00
2018-12-31T01:28:42.988Z,1.10
2018-12-31T01:29:42.977Z,1.20
2018-12-31T01:30:42.980Z,1.10
2018-12-31T01:31:42.985Z,1.10
2018-12-31T01:32:42.984Z,1.10
2018-12-31T01:33:42.986Z,1.00
2018-12-31T01:34:42.989Z,1.00
2018-12-31T01:35:42.991Z,1.10
2018-12-31T01:36:42.994Z,1.10
2018-12-31T01:37:42.996Z,1.20
2018-12-31T01:38:42.996Z,1.00
2018-12-31T01:39:43.002Z,1.00
2018-12-31T01:40:43.004Z,1.20
2018-12-31T01:41:43.006Z,1.10
2018-12-31T01:42:43.008Z,1.00
2018-12-31T01:43:43.011Z,1.00
2018-12-31T01:44:43.014Z,1.00
2018-12-31T01:45:43.016Z,1.10
2018-12-31T01:46:43.069Z,1.00
2018-12-31T01:47:43.021Z,1.10
2018-12-31T01:48:43.023Z,1.10
2018-12-31T01:49:43.024Z,1.10
2018-12-31T01:50:43.027Z,1.00
2018-12-31T01:51:43.088Z,1.10
2018-12-31T01:52:43.050Z,1.00
2018-12-31T01:53:43.035Z,1.00
2018-12-31T01:54:43.037Z,1.20
2018-12-31T01:55:43.041Z,1.00
2018-12-31T01:56:43.092Z,1.00
2018-12-31T01:57:43.044Z,1.20
2018-12-31T01:58:43.053Z,1.10
2018-12-31T01:59:43.053Z,1.00
2018-12-31T02:00:43.054Z,1.00
2018-12-31T02:01:43.055Z,1.00
2018-12-31T02:02:43.056Z,1.10
2018-12-31T02:03:43.059Z,1.20
2018-12-31T02:04:43.084Z,1.10
2018-12-31T02:05:43.065Z,1.00
2018-12-31T02:06:43.066Z,1.10
2018-12-31T02:07:43.070Z,0.80
2018-12-31T02:08:43.073Z,1.00
2018-12-31T02:09:43.074Z,1.00
2018-12-31T02:10:43.075Z,1.00
2018-12-31T02:11:43.080Z,1.10
2018-12-31T02:12:43.081Z,0.90
2018-12-31T02:13:43.083Z,1.00
2018-12-31T02:14:43.087Z,1.10
2018-12-31T02:15:43.088Z,1.00
2018-12-31T02:16:43.091Z,1.00
2018-12-31T02:17:43.098Z,0.90
2018-12-31T02:18:43.094Z,1.00
2018-12-31T02:19:43.098Z,1.10
2018-12-31T02:20:43.101Z,1.00
2018-12-31T02:21:43.100Z,1.00
2018-12-31T02:22:43.104Z,1.00
2018-12-31T02:23:43.108Z,1.00
2018-12-31T02:24:43.111Z,1.10
2018-12-31T02:25:43.112Z,0.90
2018-12-31T02:26:43.116Z,0.90
2018-12-31T02:27:43.117Z,1.00
2018-12-31T02:28:43.120Z,1.10
2018-12-31T02:29:43.132Z,1.00
2018-12-31T02:30:43.126Z,0.90
2018-12-31T02:31:43.177Z,1.00
2018-12-31T02:32:43.130Z,0.90
2018-12-31T02:33:43.134Z,0.80
2018-12-31T02:34:43.150Z,0.90
2018-12-31T02:35:43.138Z,1.00
2018-12-31T02:36:43.141Z,1.10
2018-12-31T02:37:43.142Z,1.00
2018-12-31T02:38:43.157Z,0.90
2018-12-31T02:39:43.147Z,0.90
2018-12-31T02:40:43.149Z,0.90
2018-12-31T02:41:43.152Z,0.90
2018-12-31T02:42:43.158Z,0.80
2018-12-31T02:43:43.161Z,1.00
2018-12-31T02:44:43.160Z,0.90
2018-12-31T02:45:43.162Z,0.90
2018-12-31T02:46:43.164Z,0.90
2018-12-31T02:47:43.176Z,1.00
2018-12-31T02:48:43.170Z,0.90
2018-12-31T02:49:43.171Z,1.00
2018-12-31T02:50:43.175Z,1.10
2018-12-31T02:51:43.177Z,0.80
2018-12-31T02:52:43.182Z,1.00
2018-12-31T02:53:43.187Z,0.90
2018-12-31T02:54:43.184Z,0.80
2018-12-31T02:55:43.188Z,1.00
2018-12-31T02:56:43.217Z,0.80
2018-12-31T02:57:43.191Z,0.90
2018-12-31T02:58:43.195Z,0.70
2018-12-31T02:59:43.197Z,0.80
2018-12-31T03:00:43.199Z,0.80
2018-12-31T03:01:43.202Z,1.00
2018-12-31T03:02:43.206Z,0.90
2018-12-31T03:03:43.214Z,0.80
2018-12-31T03:04:43.242Z,1.00
2018-12-31T03:05:43.212Z,0.80
2018-12-31T03:06:43.215Z,0.80
2018-12-31T03:07:43.217Z,0.90
2018-12-31T03:08:43.222Z,0.90
2018-12-31T03:09:43.220Z,1.00
2018-12-31T03:10:43.224Z,1.00
2018-12-31T03:11:43.226Z,0.80
2018-12-31T03:12:43.230Z,0.80
2018-12-31T03:13:43.231Z,0.90
2018-12-31T03:14:43.235Z,0.80
2018-12-31T03:15:43.237Z,1.00
2018-12-31T03:16:43.237Z,0.80
2018-12-31T03:17:43.240Z,0.90
2018-12-31T03:18:43.244Z,0.90
2018-12-31T03:19:43.251Z,0.80
2018-12-31T03:20:43.399Z,0.80
2018-12-31T03:21:43.255Z,0.80
2018-12-31T03:22:43.253Z,0.90
2018-12-31T03:23:43.256Z,0.90
2018-12-31T03:24:43.262Z,0.70
2018-12-31T03:25:43.261Z,0.80
2018-12-31T03:26:43.313Z,0.80
2018-12-31T03:27:43.266Z,0.80
2018-12-31T03:28:43.269Z,0.90
2018-12-31T03:29:43.270Z,0.80
2018-12-31T03:30:43.274Z,0.80
2018-12-31T03:31:43.279Z,1.00
2018-12-31T03:32:43.279Z,0.90
2018-12-31T03:33:43.281Z,0.80
2018-12-31T03:34:43.284Z,0.80
2018-12-31T03:35:43.286Z,0.90
2018-12-31T03:36:43.289Z,0.90
2018-12-31T03:37:43.291Z,0.80
2018-12-31T03:38:43.294Z,0.80
2018-12-31T03:39:43.296Z,0.80
2018-12-31T03:40:43.309Z,0.80
2018-12-31T03:41:43.300Z,0.80
2018-12-31T03:42:43.308Z,0.80
2018-12-31T03:43:43.305Z,0.80
2018-12-31T03:44:43.313Z,0.90
2018-12-31T03:45:43.310Z,1.00
2018-12-31T03:46:43.312Z,0.70
2018-12-31T03:47:43.317Z,0.80
2018-12-31T03:48:43.319Z,0.90
2018-12-31T03:49:43.320Z,0.70
2018-12-31T03:50:43.325Z,0.70
2018-12-31T03:51:43.326Z,0.90
2018-12-31T03:52:43.329Z,0.80
2018-12-31T03:53:43.331Z,0.80
2018-12-31T03:54:43.333Z,0.80
2018-12-31T03:55:43.339Z,0.70
2018-12-31T03:56:43.337Z,0.80
2018-12-31T03:57:43.340Z,0.80
2018-12-31T03:58:43.343Z,0.80
2018-12-31T03:59:43.355Z,0.90
2018-12-31T04:00:43.352Z,0.80
2018-12-31T04:01:43.351Z,0.90
2018-12-31T04:02:43.353Z,0.80
2018-12-31T04:03:43.355Z,0.90
2018-12-31T04:04:43.358Z,0.80
2018-12-31T04:05:43.360Z,0.90
2018-12-31T04:06:43.373Z,0.80
2018-12-31T04:07:43.365Z,0.70
2018-12-31T04:08:43.370Z,0.70
2018-12-31T04:09:43.380Z,0.90
2018-12-31T04:10:43.373Z,0.80
2018-12-31T04:11:43.375Z,0.80
2018-12-31T04:12:43.378Z,0.90
2018-12-31T04:13:43.381Z,0.90
2018-12-31T04:14:43.386Z,0.80
2018-12-31T04:15:43.385Z,0.80
2018-12-31T04:16:43.387Z,0.80
2018-12-31T04:17:43.389Z,0.80
2018-12-31T04:18:43.393Z,0.80
2018-12-31T04:19:43.396Z,0.90
2018-12-31T04:20:43.398Z,0.90
2018-12-31T04:21:43.399Z,0.70
2018-12-31T04:22:43.402Z,0.80
2018-12-31T04:23:43.406Z,0.80
2018-12-31T04:24:43.407Z,0.90
2018-12-31T04:25:43.409Z,1.00
2018-12-31T04:26:43.413Z,0.80
2018-12-31T04:27:43.420Z,0.80
2018-12-31T04:28:43.418Z,0.80
2018-12-31T04:29:43.419Z,0.80
2018-12-31T04:30:43.427Z,0.90
2018-12-31T04:31:43.424Z,0.90
2018-12-31T04:32:43.428Z,0.80
2018-12-31T04:33:43.432Z,0.90
2018-12-31T04:34:43.433Z,0.80
2018-12-31T04:35:43.436Z,0.90
2018-12-31T04:36:43.437Z,0.80
2018-12-31T04:37:43.439Z,0.80
2018-12-31T04:38:43.442Z,0.80
2018-12-31T04:39:43.448Z,0.70
2018-12-31T04:40:43.449Z,0.80
2018-12-31T04:41:43.449Z,0.70
2018-12-31T04:42:43.451Z,0.60
2018-12-31T04:43:43.455Z,0.70
2018-12-31T04:44:43.459Z,0.70
2018-12-31T04:45:43.459Z,0.70
2018-12-31T04:46:43.472Z,0.70
2018-12-31T04:47:43.465Z,0.80
2018-12-31T04:48:43.468Z,0.90
2018-12-31T04:49:43.466Z,0.90
2018-12-31T04:50:43.471Z,0.70
2018-12-31T04:51:43.475Z,0.80
2018-12-31T04:52:43.478Z,0.70
2018-12-31T04:53:43.479Z,0.70
2018-12-31T04:54:43.489Z,0.80
2018-12-31T04:55:44.597Z,0.90
2018-12-31T04:56:43.489Z,1.00
2018-12-31T04:57:43.489Z,0.70
2018-12-31T04:58:43.490Z,0.70
2018-12-31T04:59:43.496Z,0.70
2018-12-31T05:00:43.498Z,0.80
2018-12-31T05:01:43.503Z,0.90
2018-12-31T05:02:43.501Z,0.70
2018-12-31T05:03:43.504Z,0.70
2018-12-31T05:04:43.518Z,0.80
2018-12-31T05:05:43.516Z,0.80
2018-12-31T05:06:43.512Z,0.70
2018-12-31T05:07:43.514Z,0.80
2018-12-31T05:08:43.519Z,0.70
2018-12-31T05:09:43.520Z,0.80
2018-12-31T05:10:43.522Z,0.80
2018-12-31T05:11:43.525Z,0.70
2018-12-31T05:12:43.530Z,0.90
2018-12-31T05:13:43.532Z,0.60
2018-12-31T05:14:43.540Z,0.80
2018-12-31T05:15:43.542Z,0.90
2018-12-31T05:16:43.540Z,0.70
2018-12-31T05:17:43.541Z,0.80
2018-12-31T05:18:43.542Z,0.80
2018-12-31T05:19:43.549Z,0.60
2018-12-31T05:20:43.548Z,0.70
2018-12-31T05:21:43.550Z,0.70
2018-12-31T05:22:43.555Z,0.70
2018-12-31T05:23:43.555Z,0.80
2018-12-31T05:24:43.559Z,0.80
2018-12-31T05:25:43.562Z,0.70
2018-12-31T05:26:43.765Z,0.80
2018-12-31T05:27:43.571Z,0.80
2018-12-31T05:28:43.571Z,0.70
2018-12-31T05:29:43.572Z,0.70
2018-12-31T05:30:43.574Z,0.60
2018-12-31T05:31:43.676Z,0.70
2018-12-31T05:32:43.578Z,0.80
2018-12-31T05:33:43.580Z,0.70
2018-12-31T05:34:43.584Z,0.80
2018-12-31T05:35:43.586Z,0.90
2018-12-31T05:36:43.588Z,0.80
2018-12-31T05:37:43.590Z,0.70
2018-12-31T05:38:43.593Z,0.70
2018-12-31T05:39:43.597Z,0.90
2018-12-31T05:40:43.599Z,0.90
2018-12-31T05:41:43.601Z,0.80
2018-12-31T05:42:43.603Z,0.80
2018-12-31T05:43:43.606Z,0.80
2018-12-31T05:44:43.611Z,0.70
2018-12-31T05:45:43.615Z,0.80
2018-12-31T05:46:43.617Z,0.60
2018-12-31T05:47:43.620Z,0.80
2018-12-31T05:48:43.619Z,0.60
2018-12-31T05:49:43.621Z,0.70
2018-12-31T05:50:43.623Z,0.70
2018-12-31T05:51:43.626Z,0.80
2018-12-31T05:52:43.630Z,0.70
2018-12-31T05:53:43.630Z,0.70
2018-12-31T05:54:43.632Z,0.60
2018-12-31T05:55:43.637Z,0.90
2018-12-31T05:56:43.638Z,0.70
2018-12-31T05:57:43.645Z,0.70
2018-12-31T05:58:43.645Z,0.50
2018-12-31T05:59:43.647Z,0.70
2018-12-31T06:00:43.652Z,0.70
2018-12-31T06:01:43.703Z,0.60
2018-12-31T06:02:43.654Z,0.70
2018-12-31T06:03:43.658Z,0.70
2018-12-31T06:04:43.663Z,0.70
2018-12-31T06:05:43.661Z,0.70
2018-12-31T06:06:43.663Z,0.70
2018-12-31T06:07:43.670Z,0.80
2018-12-31T06:08:43.669Z,0.70
2018-12-31T06:09:43.672Z,0.60
2018-12-31T06:10:43.674Z,0.70
2018-12-31T06:11:43.676Z,0.80
2018-12-31T06:12:43.679Z,0.90
2018-12-31T06:13:43.681Z,0.70
2018-12-31T06:14:43.685Z,0.70
2018-12-31T06:15:43.686Z,0.60
2018-12-31T06:16:43.690Z,0.70
2018-12-31T06:17:43.691Z,0.70
2018-12-31T06:18:43.694Z,0.60
2018-12-31T06:19:43.696Z,0.60
2018-12-31T06:20:43.699Z,0.60
2018-12-31T06:21:43.700Z,0.60
2018-12-31T06:22:43.703Z,0.70
2018-12-31T06:23:43.707Z,0.60
2018-12-31T06:24:43.710Z,0.70
2018-12-31T06:25:43.712Z,0.80
2018-12-31T06:26:43.714Z,0.70
2018-12-31T06:27:43.794Z,0.70
2018-12-31T06:28:43.719Z,0.70
2018-12-31T06:29:43.725Z,0.80
2018-12-31T06:30:43.726Z,0.70
2018-12-31T06:31:43.727Z,0.80
2018-12-31T06:32:43.730Z,0.70
2018-12-31T06:33:43.733Z,0.70
2018-12-31T06:34:43.734Z,0.60
2018-12-31T06:35:43.737Z,0.60
2018-12-31T06:36:43.746Z,0.70
2018-12-31T06:37:43.742Z,0.60
2018-12-31T06:38:43.744Z,0.70
2018-12-31T06:39:43.747Z,0.80
2018-12-31T06:40:43.750Z,0.70
2018-12-31T06:41:43.753Z,0.70
2018-12-31T06:42:43.754Z,0.70
2018-12-31T06:43:43.757Z,0.80
2018-12-31T06:44:43.762Z,0.60
2018-12-31T06:45:43.762Z,0.60
2018-12-31T06:46:43.764Z,0.50
2018-12-31T06:47:43.767Z,0.60
2018-12-31T06:48:43.770Z,0.70
2018-12-31T06:49:43.773Z,0.70
2018-12-31T06:50:43.774Z,0.50
2018-12-31T06:51:43.777Z,0.70
2018-12-31T06:52:43.779Z,0.60
2018-12-31T06:53:43.784Z,0.70
2018-12-31T06:54:43.784Z,0.70
2018-12-31T06:55:43.787Z,0.60
2018-12-31T06:56:43.790Z,0.80
2018-12-31T06:57:43.791Z,0.80
2018-12-31T06:58:43.794Z,0.60
2018-12-31T06:59:43.797Z,0.80
2018-12-31T07:00:43.800Z,0.50
2018-12-31T07:01:43.803Z,0.60
2018-12-31T07:02:43.807Z,0.60
2018-12-31T07:03:43.809Z,0.70
2018-12-31T07:04:43.810Z,0.50
2018-12-31T07:05:43.812Z,0.50
2018-12-31T07:06:43.813Z,0.60
2018-12-31T07:07:43.817Z,0.70
2018-12-31T07:08:43.821Z,0.70
2018-12-31T07:09:43.822Z,0.60
2018-12-31T07:10:43.831Z,0.70
2018-12-31T07:11:43.880Z,0.70
2018-12-31T07:12:43.830Z,0.60
2018-12-31T07:13:43.832Z,0.60
2018-12-31T07:14:43.835Z,0.80
2018-12-31T07:15:43.838Z,0.70
2018-12-31T07:16:44.640Z,0.70
2018-12-31T07:17:43.845Z,0.80
2018-12-31T07:18:43.845Z,0.70
2018-12-31T07:19:43.848Z,0.60
2018-12-31T07:20:43.853Z,0.60
2018-12-31T07:21:43.853Z,0.60
2018-12-31T07:22:43.855Z,0.70
2018-12-31T07:23:43.863Z,0.70
2018-12-31T07:24:45.360Z,0.60
2018-12-31T07:25:43.862Z,0.80
2018-12-31T07:26:43.865Z,0.60
2018-12-31T07:27:43.868Z,0.70
2018-12-31T07:28:43.872Z,0.70
2018-12-31T07:29:43.872Z,0.60
2018-12-31T07:30:43.875Z,0.70
2018-12-31T07:31:43.879Z,0.60
2018-12-31T07:32:43.881Z,0.70
2018-12-31T07:33:43.882Z,0.60
2018-12-31T07:34:43.937Z,0.70
2018-12-31T07:35:43.888Z,0.60
2018-12-31T07:36:43.891Z,0.60
2018-12-31T07:37:43.893Z,0.70
2018-12-31T07:38:43.896Z,0.60
2018-12-31T07:39:43.899Z,0.70
2018-12-31T07:40:43.901Z,0.70
2018-12-31T07:41:43.902Z,0.70
2018-12-31T07:42:43.906Z,0.60
2018-12-31T07:43:43.908Z,0.60
2018-12-31T07:44:43.909Z,0.60
2018-12-31T07:45:43.913Z,0.50
2018-12-31T07:46:43.917Z,0.60
2018-12-31T07:47:43.919Z,0.80
2018-12-31T07:48:43.928Z,0.70
2018-12-31T07:49:43.923Z,0.70
2018-12-31T07:50:43.927Z,0.80
2018-12-31T07:51:43.929Z,0.60
2018-12-31T07:52:43.935Z,0.70
2018-12-31T07:53:43.935Z,0.70
2018-12-31T07:54:43.935Z,0.70
2018-12-31T07:55:43.945Z,0.70
2018-12-31T07:56:43.941Z,0.60
2018-12-31T07:57:43.943Z,0.70
2018-12-31T07:58:43.945Z,0.70
2018-12-31T07:59:43.948Z,0.70
2018-12-31T08:00:43.951Z,0.70
2018-12-31T08:01:43.953Z,0.80
2018-12-31T08:02:43.956Z,0.60
2018-12-31T08:03:43.959Z,0.60
2018-12-31T08:04:43.962Z,0.70
2018-12-31T08:05:43.963Z,0.70
2018-12-31T08:06:43.963Z,0.90
2018-12-31T08:07:43.974Z,0.60
2018-12-31T08:08:43.975Z,0.70
2018-12-31T08:09:43.975Z,0.60
2018-12-31T08:10:43.977Z,0.70
2018-12-31T08:11:43.979Z,0.70
2018-12-31T08:12:43.982Z,0.70
2018-12-31T08:13:43.985Z,0.80
2018-12-31T08:14:43.986Z,0.70
2018-12-31T08:15:43.994Z,0.50
2018-12-31T08:16:43.993Z,0.60
2018-12-31T08:17:43.995Z,0.70
2018-12-31T08:18:44.000Z,0.70
2018-12-31T08:19:44.000Z,0.70
2018-12-31T08:20:44.002Z,0.70
2018-12-31T08:21:44.005Z,0.60
2018-12-31T08:22:44.007Z,0.60
2018-12-31T08:23:44.013Z,0.70
2018-12-31T08:24:44.013Z,0.50
2018-12-31T08:25:44.016Z,0.60
2018-12-31T08:26:44.017Z,0.60
2018-12-31T08:27:44.020Z,0.70
2018-12-31T08:28:44.024Z,0.70
2018-12-31T08:29:44.025Z,0.50
2018-12-31T08:30:44.027Z,0.60
2018-12-31T08:31:44.033Z,0.60
2018-12-31T08:32:44.034Z,0.70
2018-12-31T08:33:44.035Z,0.60
2018-12-31T08:34:44.038Z,0.60
2018-12-31T08:35:44.041Z,0.60
2018-12-31T08:36:44.048Z,0.80
2018-12-31T08:37:44.048Z,0.60
2018-12-31T08:38:44.050Z,0.70
2018-12-31T08:39:44.051Z,0.50
2018-12-31T08:40:44.056Z,0.70
2018-12-31T08:41:44.058Z,0.60
2018-12-31T08:42:44.058Z,0.70
2018-12-31T08:43:44.061Z,0.70
2018-12-31T08:44:44.064Z,0.70
2018-12-31T08:45:44.068Z,0.60
2018-12-31T08:46:44.068Z,0.70
2018-12-31T08:47:44.070Z,0.60
2018-12-31T08:48:44.074Z,0.70
2018-12-31T08:49:44.076Z,0.70
2018-12-31T08:50:44.078Z,0.60
2018-12-31T08:51:44.081Z,0.60
2018-12-31T08:52:44.084Z,0.60
2018-12-31T08:53:44.086Z,0.70
2018-12-31T08:54:44.089Z,0.70
2018-12-31T08:55:44.091Z,0.60
2018-12-31T08:56:44.094Z,0.70
2018-12-31T08:57:44.096Z,0.50
2018-12-31T08:58:44.099Z,0.70
2018-12-31T08:59:44.102Z,0.50
2018-12-31T09:00:44.106Z,0.60
2018-12-31T09:01:44.106Z,0.50
2018-12-31T09:02:44.112Z,0.60
2018-12-31T09:03:44.187Z,0.70
2018-12-31T09:04:44.115Z,0.60
2018-12-31T09:05:44.116Z,0.50
2018-12-31T09:06:44.119Z,0.70
2018-12-31T09:07:44.122Z,0.60
2018-12-31T09:08:44.125Z,0.60
2018-12-31T09:09:44.128Z,0.50
2018-12-31T09:10:44.130Z,0.60
2018-12-31T09:11:44.182Z,0.80
2018-12-31T09:12:44.135Z,0.60
2018-12-31T09:13:44.137Z,0.60
2018-12-31T09:14:44.139Z,0.60
2018-12-31T09:15:44.141Z,0.60
2018-12-31T09:16:44.150Z,0.60
2018-12-31T09:17:44.147Z,0.60
2018-12-31T09:18:44.150Z,0.50
2018-12-31T09:19:44.152Z,0.60
2018-12-31T09:20:44.156Z,0.60
2018-12-31T09:21:44.158Z,0.60
2018-12-31T09:22:44.160Z,0.70
2018-12-31T09:23:44.164Z,0.70
2018-12-31T09:24:44.751Z,0.50
2018-12-31T09:25:44.167Z,0.50
2018-12-31T09:26:44.169Z,0.60
2018-12-31T09:27:44.174Z,0.60
2018-12-31T09:28:44.177Z,0.60
2018-12-31T09:29:44.177Z,0.60
2018-12-31T09:30:44.182Z,0.60
2018-12-31T09:31:44.183Z,0.70
2018-12-31T09:32:44.187Z,0.50
2018-12-31T09:33:44.188Z,0.60
2018-12-31T09:34:44.190Z,0.50
2018-12-31T09:35:44.194Z,0.60
2018-12-31T09:36:44.196Z,0.60
2018-12-31T09:37:44.197Z,0.60
2018-12-31T09:38:44.202Z,0.50
2018-12-31T09:39:44.203Z,0.70
2018-12-31T09:40:44.289Z,0.60
2018-12-31T09:41:44.208Z,0.60
2018-12-31T09:42:44.212Z,0.50
2018-12-31T09:43:44.213Z,0.50
2018-12-31T09:44:44.216Z,0.50
2018-12-31T09:45:44.219Z,0.60
2018-12-31T09:46:44.222Z,0.50
2018-12-31T09:47:44.224Z,0.60
2018-12-31T09:48:44.226Z,0.50
2018-12-31T09:49:44.228Z,0.70
2018-12-31T09:50:44.231Z,0.50
2018-12-31T09:51:44.234Z,0.60
2018-12-31T09:52:44.238Z,0.60
2018-12-31T09:53:44.239Z,0.60
2018-12-31T09:54:44.248Z,0.50
2018-12-31T09:55:44.244Z,0.50
2018-12-31T09:56:44.247Z,0.60
2018-12-31T09:57:44.249Z,0.50
2018-12-31T09:58:44.252Z,0.50
2018-12-31T09:59:44.259Z,0.60
2018-12-31T10:00:44.257Z,0.50
2018-12-31T10:01:44.261Z,0.50
2018-12-31T10:02:44.262Z,0.60
2018-12-31T10:03:44.265Z,0.50
2018-12-31T10:04:44.268Z,0.60
2018-12-31T10:05:44.270Z,0.60
2018-12-31T10:06:44.272Z,0.60
2018-12-31T10:07:44.275Z,0.50
2018-12-31T10:08:49.246Z,0.60
2018-12-31T10:09:44.280Z,0.40
2018-12-31T10:10:44.283Z,0.50
2018-12-31T10:11:44.285Z,0.60
2018-12-31T10:12:44.288Z,0.60
2018-12-31T10:13:44.290Z,0.50
2018-12-31T10:14:44.298Z,0.60
2018-12-31T10:15:44.295Z,0.60
2018-12-31T10:16:44.298Z,0.70
2018-12-31T10:17:44.317Z,0.50
2018-12-31T10:18:44.303Z,0.50
2018-12-31T10:19:44.306Z,0.70
2018-12-31T10:20:44.308Z,0.60
2018-12-31T10:21:44.309Z,0.60
2018-12-31T10:22:44.313Z,0.60
2018-12-31T10:23:44.316Z,0.40
2018-12-31T10:24:44.321Z,0.50
2018-12-31T10:25:44.322Z,0.50
2018-12-31T10:26:44.323Z,0.60
2018-12-31T10:27:44.326Z,0.50
2018-12-31T10:28:44.329Z,0.60
2018-12-31T10:29:44.330Z,0.60
2018-12-31T10:30:44.333Z,0.60
2018-12-31T10:31:44.336Z,0.60
2018-12-31T10:32:44.339Z,0.60
2018-12-31T10:33:44.341Z,0.50
2018-12-31T10:34:44.347Z,0.60
2018-12-31T10:35:44.347Z,0.60
2018-12-31T10:36:44.349Z,0.50
2018-12-31T10:37:44.351Z,0.60
2018-12-31T10:38:44.358Z,0.50
2018-12-31T10:39:44.357Z,0.50
2018-12-31T10:40:44.423Z,0.50
2018-12-31T10:41:44.362Z,0.50
2018-12-31T10:42:44.364Z,0.60
2018-12-31T10:43:44.371Z,0.60
2018-12-31T10:44:44.369Z,0.60
2018-12-31T10:45:44.371Z,0.60
2018-12-31T10:46:44.374Z,0.60
2018-12-31T10:47:44.377Z,0.50
2018-12-31T10:48:44.431Z,0.60
2018-12-31T10:49:44.382Z,0.60
2018-12-31T10:50:44.385Z,0.40
2018-12-31T10:51:44.388Z,0.70
2018-12-31T10:52:44.391Z,0.60
2018-12-31T10:53:44.392Z,0.50
2018-12-31T10:54:44.395Z,0.70
2018-12-31T10:55:44.398Z,0.50
2018-12-31T10:56:44.401Z,0.50
2018-12-31T10:57:44.404Z,0.50
2018-12-31T10:58:44.455Z,0.70
2018-12-31T10:59:44.410Z,0.60
2018-12-31T11:00:44.411Z,0.60
2018-12-31T11:01:44.414Z,0.60
2018-12-31T11:02:44.415Z,0.60
2018-12-31T11:03:44.418Z,0.50
2018-12-31T11:04:44.423Z,0.60
2018-12-31T11:05:44.423Z,0.50
2018-12-31T11:06:44.432Z,0.50
2018-12-31T11:07:44.429Z,0.60
2018-12-31T11:08:44.431Z,0.50
2018-12-31T11:09:44.435Z,0.60
2018-12-31T11:10:44.436Z,0.60
2018-12-31T11:11:44.489Z,0.50
2018-12-31T11:12:44.451Z,0.40
2018-12-31T11:13:44.494Z,0.50
2018-12-31T11:14:44.446Z,0.60
2018-12-31T11:15:44.449Z,0.50
2018-12-31T11:16:44.454Z,0.50
2018-12-31T11:17:44.453Z,0.70
2018-12-31T11:18:44.456Z,0.60
2018-12-31T11:19:44.460Z,0.50
2018-12-31T11:20:44.464Z,0.50
2018-12-31T11:21:44.468Z,0.50
2018-12-31T11:22:44.466Z,0.60
2018-12-31T11:23:44.470Z,0.50
2018-12-31T11:24:44.472Z,0.50
2018-12-31T11:25:44.474Z,0.60
2018-12-31T11:26:44.477Z,0.50
2018-12-31T11:27:44.481Z,0.60
2018-12-31T11:28:44.482Z,0.60
2018-12-31T11:29:44.485Z,0.60
2018-12-31T11:30:44.487Z,0.50
2018-12-31T11:31:44.490Z,0.70
2018-12-31T11:32:44.498Z,0.50
2018-12-31T11:33:44.495Z,0.50
2018-12-31T11:34:44.497Z,0.50
2018-12-31T11:35:44.503Z,0.50
2018-12-31T11:36:44.503Z,0.50
2018-12-31T11:37:44.506Z,0.50
2018-12-31T11:38:44.511Z,0.50
2018-12-31T11:39:44.511Z,0.60
2018-12-31T11:40:44.515Z,0.50
2018-12-31T11:41:44.564Z,0.60
2018-12-31T11:42:44.518Z,0.40
2018-12-31T11:43:44.520Z,0.50
2018-12-31T11:44:44.523Z,0.50
2018-12-31T11:45:44.528Z,0.60
2018-12-31T11:46:44.532Z,0.50
2018-12-31T11:47:44.530Z,0.50
2018-12-31T11:48:44.533Z,0.60
2018-12-31T11:49:44.535Z,0.50
2018-12-31T11:50:44.548Z,0.50
2018-12-31T11:51:44.542Z,0.50
2018-12-31T11:52:44.544Z,0.60
2018-12-31T11:53:44.548Z,0.60
2018-12-31T11:54:44.549Z,0.40
2018-12-31T11:55:44.552Z,0.60
2018-12-31T11:56:44.606Z,0.50
2018-12-31T11:57:44.557Z,0.50
2018-12-31T11:58:44.558Z,0.50
2018-12-31T11:59:44.559Z,0.50
2018-12-31T12:00:44.564Z,0.50
2018-12-31T12:01:44.617Z,0.60
2018-12-31T12:02:44.569Z,0.60
2018-12-31T12:03:44.571Z,0.50
2018-12-31T12:04:44.576Z,0.50
2018-12-31T12:05:44.576Z,0.60
2018-12-31T12:06:44.579Z,0.60
2018-12-31T12:07:44.582Z,0.50
2018-12-31T12:08:44.587Z,0.60
2018-12-31T12:09:44.587Z,0.60
2018-12-31T12:10:44.603Z,0.50
2018-12-31T12:11:44.743Z,0.60
2018-12-31T12:12:44.599Z,0.60
2018-12-31T12:13:44.597Z,0.60
2018-12-31T12:14:44.601Z,0.60
2018-12-31T12:15:44.603Z,0.50
2018-12-31T12:16:44.605Z,0.50
2018-12-31T12:17:44.608Z,0.50
2018-12-31T12:18:44.610Z,0.50
2018-12-31T12:19:44.746Z,0.50
2018-12-31T12:20:44.619Z,0.50
2018-12-31T12:21:44.618Z,0.50
2018-12-31T12:22:44.621Z,0.60
2018-12-31T12:23:44.626Z,0.50
2018-12-31T12:24:44.626Z,0.50
2018-12-31T12:25:44.628Z,0.50
2018-12-31T12:26:45.181Z,0.50
2018-12-31T12:27:44.635Z,0.50
2018-12-31T12:28:44.638Z,0.50
2018-12-31T12:29:44.638Z,0.50
2018-12-31T12:30:44.641Z,0.50
2018-12-31T12:31:44.644Z,0.50
2018-12-31T12:32:44.647Z,0.50
2018-12-31T12:33:44.648Z,0.50
2018-12-31T12:34:44.656Z,0.50
2018-12-31T12:35:44.654Z,0.50
2018-12-31T12:36:44.657Z,0.40
2018-12-31T12:37:48.406Z,0.50
2018-12-31T12:38:44.662Z,0.60
2018-12-31T12:39:44.673Z,0.60
2018-12-31T12:40:44.675Z,0.50
2018-12-31T12:41:44.676Z,0.50
2018-12-31T12:42:44.675Z,0.50
2018-12-31T12:43:44.678Z,0.50
2018-12-31T12:44:44.680Z,0.60
2018-12-31T12:45:44.685Z,0.50
2018-12-31T12:46:44.682Z,0.60
2018-12-31T12:47:44.685Z,0.50
2018-12-31T12:48:44.692Z,0.60
2018-12-31T12:49:44.722Z,0.60
2018-12-31T12:50:44.693Z,0.60
2018-12-31T12:51:44.697Z,0.50
2018-12-31T12:52:44.696Z,0.40
2018-12-31T12:53:44.700Z,0.60
2018-12-31T12:54:44.704Z,0.40
2018-12-31T12:55:44.707Z,0.50
2018-12-31T12:56:44.708Z,0.50
2018-12-31T12:57:44.711Z,0.40
2018-12-31T12:58:44.715Z,0.50
2018-12-31T12:59:44.718Z,0.60
2018-12-31T13:00:44.720Z,0.50
2018-12-31T13:01:44.770Z,0.50
2018-12-31T13:02:44.722Z,0.50
2018-12-31T13:03:44.728Z,0.50
2018-12-31T13:04:44.729Z,0.50
2018-12-31T13:05:44.730Z,0.60
2018-12-31T13:06:44.750Z,0.50
2018-12-31T13:07:44.736Z,0.50
2018-12-31T13:08:44.743Z,0.50
2018-12-31T13:09:44.742Z,0.50
2018-12-31T13:10:44.746Z,0.50
2018-12-31T13:11:44.746Z,0.50
2018-12-31T13:12:44.748Z,0.50
2018-12-31T13:13:44.751Z,0.50
2018-12-31T13:14:44.756Z,0.60
2018-12-31T13:15:44.801Z,0.50
2018-12-31T13:16:44.760Z,0.50
2018-12-31T13:17:44.762Z,0.40
2018-12-31T13:18:44.765Z,0.50